Latest Weather Observations for Maatsuyker Island

IDT60801

Issued at 8:01 am EST Tuesday 31 May 2016 (issued every 30 minutes, with the page automatically refreshed every 10 minutes)

About weather observations | Map of weather stations | Latest weather observations for TAS | Other Formats
Station Details ID: 094041 Name: MAATSUYKER ISLAND LIGHTHOUSE Lat: -43.66 Lon: 146.27 Height: 146.5 m
Data from the previous 72 hours. | See also: Recent months at Maatsuyker Island
Date/Time
EST
Temp
°C
App
Temp
°C
Dew
Point
Rel
Hum
%
Delta-T
°C
Wind Press
QNH
hPa
Press
MSL
hPa
Rain
since 9 am
mm
Dir
 
Spd
km/h
Gust
km/h
Spd
kts
Gust
kts
31/08:00am 7.0 4.5 3.5 78 1.5 N 6 7 3 4 1032.5 - 0.0
31/07:30am 6.8 4.2 3.2 78 1.5 N 6 9 3 5 1032.4 - 0.0
31/07:00am 6.5 3.4 3.7 82 1.2 N 9 11 5 6 1032.3 - 0.0
31/06:30am 6.7 3.6 3.6 80 1.3 N 9 11 5 6 1032.0 - 0.0
31/06:00am 6.6 3.5 3.8 82 1.2 NNE 9 9 5 5 1031.7 1031.9 0.0
31/05:30am 6.9 3.5 3.9 81 1.3 N 11 13 6 7 1031.6 - 0.0
31/05:00am 7.0 2.8 4.0 81 1.3 N 15 17 8 9 1031.4 - 0.0
31/04:30am 7.2 3.3 3.2 76 1.7 N 13 15 7 8 1031.1 - 0.0
31/04:00am 7.2 2.7 2.1 70 2.1 N 15 17 8 9 1031.0 - 0.0
31/03:30am 6.9 1.7 2.3 72 1.9 N 19 20 10 11 1031.1 - 0.0
31/03:00am 7.0 1.9 2.9 75 1.7 N 19 22 10 12 1031.1 1031.3 0.0
31/02:30am 7.1 2.0 3.0 75 1.7 N 19 20 10 11 1031.0 - 0.0
31/02:00am 7.4 2.2 2.6 71 2.0 NNE 19 22 10 12 1030.9 - 0.0
31/01:30am 7.4 2.3 2.9 73 1.9 N 19 22 10 12 1030.8 - 0.0
31/01:00am 7.5 2.4 3.0 73 1.9 N 19 20 10 11 1030.8 - 0.0
31/12:30am 7.6 2.5 3.1 73 1.9 N 19 22 10 12 1030.9 - 0.0
31/12:00am 8.2 3.5 3.3 71 2.1 N 17 20 9 11 1031.1 1031.3 0.0
 
Date/Time
EST
Temp
°C
App
Temp
°C
Dew
Point
Rel
Hum
%
Delta-T
°C
Wind Press
QNH
hPa
Press
MSL
hPa
Rain
since 9 am
mm
Dir
 
Spd
km/h
Gust
km/h
Spd
kts
Gust
kts
30/11:30pm 8.2 4.3 3.5 72 2.0 NNE 13 17 7 9 1031.2 - 0.0
30/11:00pm 8.4 4.1 3.2 70 2.2 N 15 17 8 9 1031.1 - 0.0
30/10:30pm 8.4 4.5 3.5 71 2.1 N 13 17 7 9 1031.0 - 0.0
30/10:00pm 8.5 4.2 3.1 69 2.3 N 15 19 8 10 1030.9 - 0.0
30/09:30pm 8.5 4.5 3.1 69 2.3 N 13 17 7 9 1030.7 - 0.0
30/09:00pm 8.5 5.4 3.6 71 2.1 NNE 9 15 5 8 1030.5 1030.8 0.0
30/08:30pm 8.8 5.3 3.5 69 2.3 N 11 17 6 9 1030.3 - 0.0
30/08:00pm 8.8 5.3 3.5 69 2.3 N 11 15 6 8 1030.2 - 0.0
30/07:30pm 8.9 4.9 3.0 66 2.5 N 13 17 7 9 1030.0 - 0.0
30/07:00pm 8.9 6.3 3.0 66 2.5 NNE 6 11 3 6 1029.8 - 0.0
30/06:30pm 8.8 6.9 2.9 66 2.5 NNE 2 7 1 4 1029.6 - 0.0
30/06:00pm 9.0 6.7 2.6 64 2.7 NE 4 9 2 5 1029.4 1029.7 0.0
30/05:30pm 9.3 6.8 1.6 58 3.2 NW 4 7 2 4 1029.1 - 0.0
30/05:00pm 9.0 5.6 2.1 62 2.9 SW 9 13 5 7 1028.7 - 0.0
30/04:30pm 9.1 6.2 2.5 63 2.8 SSW 7 15 4 8 1028.4 - 0.0
30/04:00pm 9.2 6.4 2.9 65 2.7 SW 7 13 4 7 1028.1 - 0.0
30/03:30pm 9.4 6.6 2.9 64 2.8 W 7 13 4 7 1027.9 - 0.0
30/03:00pm 9.5 4.7 2.4 61 3.0 WNW 17 20 9 11 1027.7 1028.0 0.0
30/02:30pm 9.5 6.2 2.4 61 3.0 WNW 9 13 5 7 1027.6 - 0.0
30/02:00pm 9.5 6.2 2.4 61 3.0 NW 9 13 5 7 1027.4 - 0.0
30/01:30pm 9.5 5.0 2.4 61 3.0 NNW 15 20 8 11 1027.4 - 0.0
30/01:00pm 9.4 5.0 2.6 62 2.9 NNW 15 20 8 11 1027.5 - 0.0
30/12:30pm 9.3 4.5 2.7 63 2.8 NNW 17 20 9 11 1027.5 - 0.0
30/12:00pm 9.3 6.0 2.2 61 3.0 WNW 9 17 5 9 1027.6 1027.9 0.0
30/11:30am 9.3 6.7 4.3 71 2.2 NNE 7 11 4 6 1027.8 - 0.0
30/11:00am 9.3 6.0 4.3 71 2.2 N 11 15 6 8 1027.8 - 0.0
30/10:30am 9.3 6.0 2.7 63 2.8 NW 9 15 5 8 1027.7 - 0.0
30/10:00am 9.1 5.9 3.0 65 2.6 NNW 9 13 5 7 1027.5 - 0.0
30/09:30am 8.9 4.6 3.1 67 2.5 NNW 15 20 8 11 1027.3 - 0.0
30/09:00am 8.8 5.6 3.2 68 2.4 NW 9 22 5 12 1027.1 1027.4 0.8
30/08:30am 8.7 4.0 3.1 68 2.4 NW 17 20 9 11 1026.8 - 0.8
30/08:00am 8.8 3.8 3.5 69 2.3 NNW 19 24 10 13 1026.4 - 0.8
30/07:30am 8.6 4.5 2.4 65 2.6 SW 13 17 7 9 1026.2 - 0.8
30/07:00am 8.4 5.4 2.2 65 2.6 S 7 17 4 9 1026.0 - 0.8
30/06:30am 8.5 4.4 2.0 63 2.7 W 13 20 7 11 1025.7 - 0.8
30/06:00am 8.2 5.0 3.0 70 2.2 NNW 9 17 5 9 1025.3 1025.5 0.8
30/05:30am 8.4 3.9 2.4 66 2.5 NNW 15 28 8 15 1025.0 - 0.8
30/05:00am 8.5 2.0 2.8 67 2.4 NW 26 32 14 17 1024.7 - 0.8
30/04:30am 8.2 4.8 1.6 63 2.7 W 9 15 5 8 1024.6 - 0.8
30/04:00am 8.1 4.3 1.8 64 2.6 NW 11 20 6 11 1024.4 - 0.8
30/03:30am 8.0 4.9 1.4 63 2.7 NW 7 15 4 8 1024.3 - 0.8
30/03:00am 8.1 3.8 1.2 62 2.8 WNW 13 20 7 11 1024.1 1024.3 0.8
30/02:30am 8.1 3.5 1.5 63 2.7 WNW 15 20 8 11 1024.0 - 0.8
30/02:00am 8.0 4.7 2.2 67 2.4 SW 9 15 5 8 1023.7 - 0.8
30/01:30am 8.1 5.7 2.1 66 2.5 W 4 11 2 6 1023.6 - 0.8
30/01:00am 8.1 3.7 2.9 70 2.2 SSW 15 20 8 11 1023.3 - 0.8
30/12:30am 8.0 5.7 2.5 68 2.3 NNW 4 9 2 5 1023.1 - 0.8
30/12:00am 8.2 5.3 2.5 67 2.4 SSW 7 17 4 9 1023.1 1023.4 0.8
 
Date/Time
EST
Temp
°C
App
Temp
°C
Dew
Point
Rel
Hum
%
Delta-T
°C
Wind Press
QNH
hPa
Press
MSL
hPa
Rain
since 9 am
mm
Dir
 
Spd
km/h
Gust
km/h
Spd
kts
Gust
kts
29/11:30pm 8.2 3.1 2.8 69 2.3 S 19 26 10 14 1022.7 - 0.8
29/11:00pm 8.2 3.8 2.5 67 2.4 SW 15 20 8 11 1022.6 - 0.8
29/10:30pm 8.3 4.0 3.2 70 2.2 WSW 15 22 8 12 1022.5 - 0.8
29/10:00pm 8.4 4.0 2.7 67 2.4 W 15 22 8 12 1022.5 - 0.8
29/09:30pm 8.4 4.4 3.0 69 2.3 W 13 20 7 11 1022.3 - 0.8
29/09:00pm 8.1 3.4 2.9 70 2.2 S 17 20 9 11 1022.0 1022.3 0.8
29/08:30pm 8.2 2.8 2.5 67 2.4 WSW 20 26 11 14 1021.8 - 0.8
29/08:00pm 8.5 3.4 2.9 68 2.4 W 19 24 10 13 1021.5 - 0.8
29/07:30pm 8.4 3.6 2.7 67 2.4 W 17 22 9 12 1021.0 - 0.8
29/07:00pm 8.3 3.0 2.9 69 2.3 WNW 20 26 11 14 1020.7 - 0.8
29/06:30pm 8.4 3.3 3.0 69 2.3 WNW 19 22 10 12 1020.2 - 0.8
29/06:00pm 8.5 3.5 3.7 72 2.1 W 19 24 10 13 1019.9 1020.1 0.8
29/05:30pm 8.8 3.8 3.5 69 2.3 W 19 24 10 13 1019.6 - 0.8
29/05:00pm 8.9 4.0 4.1 72 2.1 WSW 19 26 10 14 1019.3 - 0.8
29/04:30pm 8.9 4.1 4.4 73 2.0 SW 19 24 10 13 1019.1 - 0.8
29/04:00pm 9.0 3.3 4.8 75 1.9 SSW 24 33 13 18 1018.8 - 0.8
29/03:30pm 9.1 2.7 5.1 76 1.8 SSW 28 35 15 19 1018.5 - 0.8
29/03:00pm 9.1 2.4 5.4 77 1.7 SSW 30 37 16 20 1018.1 1018.3 0.8
29/02:30pm 9.4 2.5 6.4 81 1.4 S 32 39 17 21 1017.6 - -
29/02:00pm 9.4 2.5 6.4 81 1.4 S 32 41 17 22 1017.4 - 0.8
29/01:30pm 9.1 2.0 6.3 83 1.3 S 33 43 18 23 1017.2 - 0.8
29/01:00pm 9.1 1.4 7.2 88 0.9 S 37 46 20 25 1016.9 - 0.8
29/12:30pm 9.0 1.7 7.1 88 0.9 S 35 46 19 25 1016.8 - 0.8
29/12:00pm 9.2 0.6 8.0 92 0.6 S 43 50 23 27 1016.7 1016.9 0.8
29/11:30am 9.2 -0.3 8.4 95 0.4 S 48 52 26 28 1016.6 - 0.8
29/11:00am 9.0 -0.5 8.4 96 0.3 S 48 54 26 29 1016.5 - 0.8
29/10:30am 9.1 -0.4 8.5 96 0.3 S 48 57 26 31 1016.1 - 0.6
29/10:00am 9.1 -0.7 8.5 96 0.3 S 50 57 27 31 1015.8 - 0.4
29/09:30am 9.0 0.5 8.6 97 0.2 S 43 50 23 27 1015.8 - 0.4
29/09:06am 9.1 1.1 8.9 99 0.1 S 41 61 22 33 1015.4 - 0.2
29/09:00am 9.2 1.4 8.4 95 0.4 S 39 57 21 31 1015.6 1015.9 21.0
29/08:42am 9.4 2.1 8.8 96 0.3 S 37 43 20 23 1015.2 - 20.6
29/08:37am 9.4 3.1 8.8 96 0.3 SE 32 37 17 20 1015.1 - 20.6
29/08:30am 9.4 1.0 8.8 96 0.3 S 43 54 23 29 1014.9 - 20.2
29/08:00am 9.1 -0.1 8.1 93 0.5 S 46 52 25 28 1014.6 - 20.2
29/07:30am 9.3 1.6 8.5 95 0.4 S 39 46 21 25 1014.1 - 19.6
29/07:16am 8.9 1.8 8.1 95 0.4 S 35 39 19 21 1014.1 - 19.6
29/07:06am 9.1 -2.0 8.1 93 0.5 SSE 56 59 30 32 1013.5 - 19.0
29/07:04am 9.1 2.0 8.1 93 0.5 S 35 54 19 29 1013.6 - 18.6
29/07:00am 8.9 1.4 7.9 93 0.5 S 37 46 20 25 1014.0 - 18.6
29/06:30am 9.3 1.2 8.5 95 0.4 SSE 41 46 22 25 1013.4 - 18.4
29/06:29am 9.3 1.2 8.5 95 0.4 SSE 41 46 22 25 1013.4 - 18.4
29/06:17am 9.6 3.2 8.6 93 0.5 ESE 32 50 17 27 1013.1 - 18.4
29/06:12am 9.7 -0.1 8.5 92 0.6 SSE 50 59 27 32 1012.7 - 18.2
29/06:06am 9.3 0.5 8.1 92 0.6 S 44 50 24 27 1013.2 - 18.2
29/06:00am 9.1 4.5 8.1 93 0.5 ESE 22 46 12 25 1013.1 1013.3 18.2
29/05:41am 9.0 5.4 8.2 95 0.4 E 17 28 9 15 1013.0 - 17.8
29/05:32am 8.8 0.1 7.8 93 0.5 SSE 43 48 23 26 1012.9 - 17.6
29/05:31am 8.8 3.0 7.8 93 0.5 SE 28 48 15 26 1012.8 - 17.6
29/05:30am 8.9 4.6 7.9 93 0.5 ESE 20 35 11 19 1012.9 - 17.6
29/05:00am 8.5 5.9 7.7 95 0.4 NE 11 28 6 15 1012.8 - 16.4
29/04:30am 8.6 1.4 7.6 93 0.5 S 35 43 19 23 1012.6 - 15.2
29/04:00am 8.9 0.0 7.6 91 0.6 S 44 52 24 28 1012.3 - 14.6
29/03:30am 9.4 0.3 8.4 93 0.5 S 46 54 25 29 1011.9 - 14.6
29/03:05am 9.2 1.4 8.4 95 0.4 S 39 57 21 31 1011.9 - 14.2
29/03:00am 8.9 1.0 7.9 93 0.5 S 39 46 21 25 1011.9 1012.1 14.2
29/02:51am 8.7 0.4 7.9 95 0.4 S 41 48 22 26 1012.0 - 14.2
29/02:42am 9.2 1.4 8.2 93 0.5 SSE 39 57 21 31 1011.4 - 13.0
29/02:30am 8.8 0.6 8.0 95 0.4 S 41 46 22 25 1011.5 - 13.0
29/02:29am 8.8 0.2 8.0 95 0.4 S 43 46 23 25 1011.6 - 13.0
29/02:22am 8.6 0.7 7.8 95 0.4 SE 39 48 21 26 1011.5 - 13.0
29/02:18am 8.5 4.2 7.9 96 0.3 E 20 43 11 23 1011.4 - 13.0
29/02:16am 8.6 -0.2 8.0 96 0.3 SSE 44 63 24 34 1011.5 - 12.8
29/02:10am 9.0 -0.2 8.2 95 0.4 SSE 46 63 25 34 1011.2 - 11.4
29/02:06am 9.1 3.0 8.3 95 0.4 SE 30 48 16 26 1011.2 - 10.4
29/02:00am 9.2 4.7 8.4 95 0.4 ESE 22 32 12 17 1011.4 - 9.6
29/01:50am 9.4 5.8 8.4 93 0.5 NE 17 37 9 20 1011.1 - 7.2
29/01:49am 9.4 2.0 8.4 93 0.5 SE 37 59 20 32 1011.0 - 7.2
29/01:46am 9.6 -0.3 8.4 92 0.6 SSE 50 59 27 32 1010.7 - 7.0
29/01:31am 9.2 0.5 7.7 90 0.7 S 43 46 23 25 1011.3 - 6.8
29/01:30am 9.2 2.7 8.0 92 0.6 SSE 32 46 17 25 1011.3 - 6.8
29/01:00am 8.7 4.4 6.8 88 0.9 SSE 19 26 10 14 1011.3 - 6.2
29/12:30am 9.4 2.9 8.0 91 0.7 SSW 32 41 17 22 1011.1 - 5.6
29/12:00am 9.1 4.4 7.6 90 0.7 S 22 26 12 14 1011.3 1011.5 5.2
 
Date/Time
EST
Temp
°C
App
Temp
°C
Dew
Point
Rel
Hum
%
Delta-T
°C
Wind Press
QNH
hPa
Press
MSL
hPa
Rain
since 9 am
mm
Dir
 
Spd
km/h
Gust
km/h
Spd
kts
Gust
kts
28/11:30pm 9.9 3.0 7.4 84 1.2 S 33 50 18 27 1010.8 - 4.6
28/11:00pm 9.9 3.5 7.0 82 1.4 S 30 35 16 19 1010.9 - 4.6
28/10:30pm 9.6 2.6 6.2 79 1.6 S 32 35 17 19 1010.8 - 4.6
28/10:00pm 9.5 4.2 7.0 84 1.2 S 24 32 13 17 1010.9 - 4.6
28/09:30pm 9.5 2.8 7.2 85 1.1 S 32 39 17 21 1010.9 - 4.6
28/09:00pm 9.2 0.5 7.7 90 0.7 S 43 48 23 26 1010.4 1010.6 4.6
28/08:30pm 8.9 -0.2 7.0 88 0.9 S 44 50 24 27 1010.2 - 4.0
28/08:00pm 9.4 0.7 7.5 88 0.9 S 43 50 23 27 1009.9 - 4.0
28/07:30pm 9.6 0.4 8.2 91 0.7 S 46 52 25 28 1009.7 - 4.0
28/07:01pm 9.1 -0.9 7.9 92 0.6 S 50 56 27 30 1009.4 - 3.8
28/07:00pm 9.1 2.0 8.1 93 0.5 SE 35 52 19 28 1009.5 - 3.6
28/06:40pm 9.7 3.7 8.7 93 0.5 E 30 59 16 32 1008.5 - 1.8
28/06:30pm 9.5 0.9 8.3 92 0.6 S 43 50 23 27 1009.0 - 1.6
28/06:00pm 9.4 2.4 8.4 93 0.5 S 35 43 19 23 1008.7 1008.9 0.8
28/05:30pm 9.3 0.8 7.0 85 1.1 SSE 41 48 22 26 1008.2 - 0.2
28/05:28pm 9.2 1.5 6.9 85 1.1 SSE 37 43 20 23 1008.2 - 0.2
28/05:00pm 9.5 4.4 7.6 88 0.9 ESE 24 33 13 18 1008.0 - 0.2
28/04:44pm 9.7 3.5 7.8 88 0.9 SSE 30 44 16 24 1007.9 - 0.2
28/04:30pm 9.7 6.4 8.1 90 0.8 ENE 15 26 8 14 1007.9 - 0.2
28/04:00pm 9.8 5.6 8.2 90 0.8 S 20 24 11 13 1007.7 - 0.2
28/03:30pm 10.4 7.1 8.2 86 1.1 NNW 15 19 8 10 1007.4 - 0.0
28/03:00pm 11.3 8.3 7.8 79 1.7 NW 13 17 7 9 1007.3 1007.5 0.0
28/02:30pm 11.4 8.5 8.2 81 1.6 WNW 13 17 7 9 1007.0 - 0.0
28/02:00pm 11.0 7.7 7.9 81 1.5 NW 15 19 8 10 1006.9 - 0.0
28/01:30pm 10.8 7.1 7.9 82 1.4 NW 17 19 9 10 1006.8 - 0.0
28/01:00pm 10.9 7.5 7.8 81 1.5 NNW 15 19 8 10 1006.9 - 0.0
28/12:30pm 10.5 6.7 7.6 82 1.4 NNW 17 20 9 11 1006.9 - 0.0
28/12:00pm 10.2 6.4 7.5 83 1.3 NNW 17 20 9 11 1007.0 1007.2 0.0
28/11:30am 10.0 6.2 7.5 84 1.2 NNW 17 20 9 11 1007.2 - 0.0
28/11:00am 9.7 5.9 7.6 87 1.0 NNW 17 20 9 11 1007.3 - 0.0
28/10:30am 8.9 5.0 7.2 89 0.8 NNW 17 22 9 12 1007.2 - 0.0
28/10:00am 9.0 4.8 7.5 90 0.7 NNW 19 24 10 13 1007.1 - 0.0
28/09:30am 8.6 3.8 7.3 91 0.6 NNW 22 32 12 17 1006.8 - 0.0
28/09:00am 8.5 3.3 7.2 91 0.6 NNW 24 32 13 17 1006.7 1006.9 5.8
28/08:30am 8.4 3.5 7.1 91 0.6 NNW 22 32 12 17 1006.8 - 5.8

Other Formats:

Comma delimited format used in spreadsheet applications
http://www.bom.gov.au/fwo/IDT60801/IDT60801.94962.axf

JavaScript Object Notation format (JSON) in row-major order
http://www.bom.gov.au/fwo/IDT60801/IDT60801.94962.json